Home > Products > Valid Products > TAF

000
FTUS46 KMFR 220500 RRA
TAFLMT
TAF
KLMT 220543Z 2206/2306 16005KT P6SM SCT120 BKN200
     FM222000 18014G22KT P6SM FEW060 BKN100 OVC150
     FM230300 18010KT P6SM SCT040 SCT060 OVC100=



000
FTUS46 KMFR 220500 RRA
TAFRBG
TAF
KRBG 220543Z 2206/2306 VRB03KT P6SM -SHRA SCT060 OVC080
     FM221300 17004KT P6SM -SHRA SCT040 BKN050 OVC080
     FM221800 18008KT P6SM -SHRA SCT040 BKN050 OVC080
     FM222100 18010G15KT P6SM -RA BKN040 OVC060=



000
FTUS46 KMFR 220500 RRA
TAFMFR
TAF
KMFR 220543Z 2206/2306 VRB03KT P6SM -SHRA SCT060 BKN080 BKN120
     FM221000 VRB03KT P6SM SCT070 BKN080 BKN120
     FM221200 16005KT P6SM SCT070 BKN080 BKN120
     FM222000 15010G20KT P6SM BKN070 OVC090
     FM230000 19009KT P6SM -SHRA BKN060 OVC080=



000
FTUS46 KMFR 220500 RRA
TAFOTH
TAF
KOTH 220543Z 2206/2306 16010KT P6SM -SHRA BKN035 OVC050
      WS020/19040KT
     FM220900 17014G20KT 6SM -RA SCT025 OVC030 WS020/20050KT
     FM221200 17015G24KT 5SM RA BKN025 OVC035 WS020/19050KT
     FM221800 19020G35KT 4SM RA SCT015 BKN025 OVC035
     FM230200 20014KT 5SM -RA SCT015 BKN020 OVC035=



000
FTUS46 KMFR 220500 RRA
TAFLMT
TAF
KLMT 220543Z 2206/2306 16005KT P6SM SCT120 BKN200
     FM222000 18014G22KT P6SM FEW060 BKN100 OVC150
     FM230300 18010KT P6SM SCT040 SCT060 OVC100=



000
FTUS46 KMFR 220500 RRA
TAFMFR
TAF
KMFR 220543Z 2206/2306 VRB03KT P6SM -SHRA SCT060 BKN080 BKN120
     FM221000 VRB03KT P6SM SCT070 BKN080 BKN120
     FM221200 16005KT P6SM SCT070 BKN080 BKN120
     FM222000 15010G20KT P6SM BKN070 OVC090
     FM230000 19009KT P6SM -SHRA BKN060 OVC080=



000
FTUS46 KMFR 220500 RRA
TAFOTH
TAF
KOTH 220543Z 2206/2306 16010KT P6SM -SHRA BKN035 OVC050
      WS020/19040KT
     FM220900 17014G20KT 6SM -RA SCT025 OVC030 WS020/20050KT
     FM221200 17015G24KT 5SM RA BKN025 OVC035 WS020/19050KT
     FM221800 19020G35KT 4SM RA SCT015 BKN025 OVC035
     FM230200 20014KT 5SM -RA SCT015 BKN020 OVC035=



000
FTUS46 KMFR 220500 RRA
TAFRBG
TAF
KRBG 220543Z 2206/2306 VRB03KT P6SM -SHRA SCT060 OVC080
     FM221300 17004KT P6SM -SHRA SCT040 BKN050 OVC080
     FM221800 18008KT P6SM -SHRA SCT040 BKN050 OVC080
     FM222100 18010G15KT P6SM -RA BKN040 OVC060=



000
FTUS46 KMFR 220500 AAA
TAFMFR
TAF AMD
KMFR 220513Z 2205/2224 VRB03KT P6SM -SHRA SCT060 BKN080 BKN120
     FM221000 VRB03KT P6SM FEW070 BKN080 BKN120
     FM221200 16005KT P6SM SCT070 BKN090 BKN120
     FM222000 15010G20KT P6SM BKN070 OVC090=



000
FTUS46 KMFR 220500 AAA
TAFMFR
TAF AMD
KMFR 220513Z 2205/2224 VRB03KT P6SM -SHRA SCT060 BKN080 BKN120
     FM221000 VRB03KT P6SM FEW070 BKN080 BKN120
     FM221200 16005KT P6SM SCT070 BKN090 BKN120
     FM222000 15010G20KT P6SM BKN070 OVC090=



000
FTUS46 KMFR 212300 RRA
TAFLMT
TAF
KLMT 212342Z 2200/2224 21005KT P6SM SCT090 BKN200
     FM220600 16005KT P6SM SCT120 BKN200
     FM222000 18014G22KT P6SM BKN100 OVC150=



000
FTUS46 KMFR 212300 RRA
TAFRBG
TAF
KRBG 212342Z 2200/2224 18010KT P6SM SCT060 BKN080 BKN100
     FM220600 VRB03KT P6SM OVC070
     FM221400 17004KT P6SM -SHRA SCT040 BKN060 OVC080
     FM222100 18010KT P6SM -RA BKN040 OVC060=



000
FTUS46 KMFR 212300 RRA
TAFOTH
TAF
KOTH 212342Z 2200/2224 19012KT P6SM SCT050 BKN070 OVC100
     FM220300 17012KT P6SM -SHRA BKN035 OVC050 WS020/19040KT
     FM220900 17014G20KT 6SM -RA SCT025 OVC035 WS020/20050KT
     FM221200 17014G20KT 5SM RA BKN025 OVC035 WS020/19050KT
     FM221800 19020G35KT 4SM RA BKN025 OVC035=



000
FTUS46 KMFR 212300 RRA
TAFMFR
TAF
KMFR 212342Z 2200/2224 26005KT P6SM SCT060 BKN200
     FM220300 VRB03KT P6SM SCT100 BKN200
     FM221200 16005KT P6SM SCT070 BKN090 BKN120
     FM222000 15010G20KT P6SM BKN070 OVC090=



000
FTUS46 KMFR 211700 CCA
TAFRBG
TAF COR
KRBG 211751Z 2118/2218 17003KT P6SM FEW035 SCT080
     FM212100 18007KT P6SM SCT060 BKN080 BKN100
     FM220600 VRB03KT P6SM OVC070
     FM221400 17004KT P6SM -SHRA SCT040 BKN060 OVC080=



000
FTUS46 KMFR 211700 RRA
TAFRBG
TAF
KRBG 211745Z 2118/2218 VRB03KT P6SM BKN045 OVC070
     FM211900 16007KT P6SM SCT050 BKN080=



000
FTUS46 KMFR 211700 RRA
TAFMFR
TAF
KMFR 211745Z 2118/2218 35003KT P6SM FEW006 BKN050 BKN070
     FM212000 26005KT P6SM SCT060 BKN200
     FM220300 VRB03KT P6SM SCT100 BKN200
     FM221200 16005KT P6SM SCT060 BKN090 BKN120=



000
FTUS46 KMFR 211700 RRA
TAFLMT
TAF
KLMT 211745Z 2118/2218 17006KT P6SM FEW040 BKN080
     FM212100 21005KT P6SM SCT090 BKN200
     FM220600 16005KT P6SM SCT120 BKN200=



000
FTUS46 KMFR 211700 RRA
TAFOTH
TAF
KOTH 211745Z 2118/2218 17010G16KT P6SM VCSH SCT035 BKN050 OVC070
     FM212100 20014G22KT P6SM SCT050 BKN070 OVC100
     FM220300 17012KT P6SM -SHRA BKN035 OVC050 WS020/19040KT
     FM220900 17014G20KT 6SM -RA SCT025 OVC035 WS020/20050KT
     FM221200 17016G26KT 5SM RA BKN025 OVC035 WS020/19050KT=



000
FTUS46 KMFR 211700 RRA
TAFMFR
TAF
KMFR 211745Z 2118/2218 35003KT P6SM FEW006 BKN050 BKN070
     FM212000 26005KT P6SM SCT060 BKN200
     FM220300 VRB03KT P6SM SCT100 BKN200
     FM221200 16005KT P6SM SCT060 BKN090 BKN120=



000
FTUS46 KMFR 211700 RRA
TAFRBG
TAF
KRBG 211745Z 2118/2218 VRB03KT P6SM BKN045 OVC070
     FM211900 16007KT P6SM SCT050 BKN080=



000
FTUS46 KMFR 211700 RRA
TAFOTH
TAF
KOTH 211745Z 2118/2218 17010G16KT P6SM VCSH SCT035 BKN050 OVC070
     FM212100 20014G22KT P6SM SCT050 BKN070 OVC100
     FM220300 17012KT P6SM -SHRA BKN035 OVC050 WS020/19040KT
     FM220900 17014G20KT 6SM -RA SCT025 OVC035 WS020/20050KT
     FM221200 17016G26KT 5SM RA BKN025 OVC035 WS020/19050KT=



000
FTUS46 KMFR 211700 RRA
TAFLMT
TAF
KLMT 211745Z 2118/2218 17006KT P6SM FEW040 BKN080
     FM212100 21005KT P6SM SCT090 BKN200
     FM220600 16005KT P6SM SCT120 BKN200=



000
FTUS46 KMFR 211700 AAA
TAFOTH
TAF AMD
KOTH 211701Z 2117/2212 16009KT P6SM FEW025 BKN090
     FM211800 18012G20KT P6SM SCT035 OVC050
     FM220600 17012G18KT P6SM -RA SCT020 OVC040 WS020/20045KT=



000
FTUS46 KMFR 211600 AAB
TAFMFR
TAF AMD
KMFR 211658Z 2117/2212 00000KT P6SM BKN006 BKN060 OVC080
     FM211800 00000KT P6SM SCT006 SCT025 BKN040
     FM211900 VRB03KT P6SM SCT040 BKN090
     FM220900 15007KT P6SM SCT060 OVC120=



000
FTUS46 KMFR 211600 AAB
TAFMFR
TAF AMD
KMFR 211658Z 2117/2212 00000KT P6SM BKN006 BKN060 OVC080
     FM211800 00000KT P6SM SCT006 SCT025 BKN040
     FM211900 VRB03KT P6SM SCT040 BKN090
     FM220900 15007KT P6SM SCT060 OVC120=



000
FTUS46 KMFR 211300 AAA
TAFMFR
TAF AMD
KMFR 211359Z 2114/2212 00000KT P6SM SCT025 BKN040
      TEMPO 2114/2116 -RA BKN003
     FM211900 VRB03KT P6SM SCT040 BKN090
     FM220900 15007KT P6SM SCT060 OVC120=



000
FTUS46 KMFR 211100
TAFMFR
TAF
KMFR 211126Z 2112/2212 00000KT P6SM SCT025 BKN040
     FM211900 VRB03KT P6SM SCT040 BKN090
     FM220900 15007KT P6SM SCT060 OVC120=



000
FTUS46 KMFR 211100
TAFLMT
TAF
KLMT 211126Z 2112/2212 18004KT P6SM SCT040=



000
FTUS46 KMFR 211100
TAFMFR
TAF
KMFR 211126Z 2112/2212 00000KT P6SM SCT025 BKN040
     FM211900 VRB03KT P6SM SCT040 BKN090
     FM220900 15007KT P6SM SCT060 OVC120=



000
FTUS46 KMFR 211100
TAFRBG
TAF
KRBG 211126Z 2112/2212 VRB03KT P6SM BKN045 OVC070
     FM211900 16007KT P6SM SCT050 BKN080=



000
FTUS46 KMFR 211100
TAFOTH
TAF
KOTH 211126Z 2112/2212 17009G14KT P6SM -SHRA BKN025 BKN100
     FM211800 18012G20KT P6SM SCT035 OVC050
     FM220600 17012G18KT P6SM -RA SCT020 OVC040 WS020/20045KT=



000
FTUS46 KMFR 211100
TAFLMT
TAF
KLMT 211126Z 2112/2212 18004KT P6SM SCT040=



000
FTUS46 KMFR 211100
TAFRBG
TAF
KRBG 211126Z 2112/2212 VRB03KT P6SM BKN045 OVC070
     FM211900 16007KT P6SM SCT050 BKN080=



000
FTUS46 KMFR 211100
TAFOTH
TAF
KOTH 211126Z 2112/2212 17009G14KT P6SM -SHRA BKN025 BKN100
     FM211800 18012G20KT P6SM SCT035 OVC050
     FM220600 17012G18KT P6SM -RA SCT020 OVC040 WS020/20045KT=



000
FTUS46 KMFR 210600 AAA
TAFOTH
TAF AMD
KOTH 210645Z 2107/2206 15008KT P6SM -SHRA SCT035 BKN050
      TEMPO 2107/2110 BKN030
     FM211000 19008G16KT P6SM -SHRA BKN025 BKN100
     FM211800 17015G25KT P6SM SCT035 OVC070=



000
FTUS46 KMFR 210500 RRA
TAFMFR
TAF
KMFR 210546Z 2106/2206 VRB03KT P6SM VCSH SCT040 OVC090
     FM210800 00000KT P6SM VCSH SCT025 BKN040
     FM211900 VRB03KT P6SM SCT040 BKN090=



000
FTUS46 KMFR 210500 RRA
TAFRBG
TAF
KRBG 210546Z 2106/2206 VRB03KT P6SM VCSH BKN045 OVC070
     FM211900 16007KT P6SM SCT050 BKN080=



000
FTUS46 KMFR 210500 RRA
TAFOTH
TAF
KOTH 210546Z 2106/2206 17012G18KT P6SM -SHRA SCT035 BKN050
      TEMPO 2106/2110 BKN030
     FM211000 19008G16KT P6SM -SHRA BKN025 BKN100
     FM211800 17015G25KT P6SM SCT035 OVC070=



000
FTUS46 KMFR 210500 RRA
TAFLMT
TAF
KLMT 210546Z 2106/2206 26006KT P6SM VCSH SCT040 BKN080
     FM211000 24005KT P6SM SCT020 BKN040
     FM211800 24003KT P6SM SCT040 SCT080=



000
FTUS46 KMFR 210200 AAB
TAFMFR
TAF AMD
KMFR 210242Z 2103/2124 VRB03KT P6SM -SHRA SCT040 OVC090
     FM210800 00000KT P6SM VCSH SCT025 OVC040
     FM211900 31005KT P6SM SCT040 BKN090=



000
FTUS46 KMFR 210200 AAB
TAFMFR
TAF AMD
KMFR 210242Z 2103/2124 VRB03KT P6SM -SHRA SCT040 OVC090
     FM210800 00000KT P6SM VCSH SCT025 OVC040
     FM211900 31005KT P6SM SCT040 BKN090=



000
FTUS46 KMFR 210000 AAA
TAFMFR
TAF AMD
KMFR 210033Z 2101/2124 31012G18KT P6SM -SHRA SCT040 OVC070
     FM210300 32003KT P6SM VCSH BKN050 BKN090
     FM210800 VRB02KT P6SM SCT025 BKN040 BKN060
     FM211800 31005KT P6SM SCT070 BKN200=



000
FTUS46 KMFR 202300
TAFOTH
TAF
KOTH 202340Z 2100/2124 21012G18KT P6SM -SHRA SCT025 BKN035
     FM210300 17008KT P6SM -SHRA BKN025 BKN035=



000
FTUS46 KMFR 202300
TAFMFR
TAF
KMFR 202340Z 2100/2124 26007KT P6SM -SHRA SCT035 BKN070
     FM210300 32003KT P6SM VCSH BKN050 BKN100
     FM210800 VRB02KT P6SM SCT025 BKN040 BKN060=



000
FTUS46 KMFR 202300
TAFLMT
TAF
KLMT 202340Z 2100/2124 25010KT P6SM -SHRA BKN035 OVC050
     FM210200 26006KT P6SM VCSH SCT035 BKN050=



000
FTUS46 KMFR 202300
TAFRBG
TAF
KRBG 202340Z 2100/2124 15005KT P6SM -SHRA SCT050 BKN100
     FM210600 VRB03KT P6SM VCSH BKN040 BKN100=



000
FTUS46 KMFR 201700
TAFLMT
TAF
KLMT 201740Z 2018/2118 14012KT P6SM VCSH SCT035 OVC050
     FM202000 22014G20KT P6SM -SHRA SCT035 OVC050
     FM210200 26006KT P6SM VCSH SCT035 BKN050=



000
FTUS46 KMFR 201700
TAFMFR
TAF
KMFR 201740Z 2018/2118 VRB04KT 2SM -RA BR BKN006 BKN025 OVC040
     FM201900 VRB04KT P6SM -SHRA BKN025 OVC060
     FM202200 26007KT P6SM -SHRA SCT035 BKN060
     FM210300 32003KT P6SM VCSH BKN050 BKN100
     FM210800 VRB02KT P6SM SCT025 BKN040 BKN060=



000
FTUS46 KMFR 201700
TAFRBG
TAF
KRBG 201740Z 2018/2118 VRB03KT P6SM -SHRA SCT025 BKN035 OVC060
     FM202000 20007KT P6SM -SHRA SCT035 BKN050
     FM210300 VRB03KT P6SM BKN040 BKN100=



000
FTUS46 KMFR 201700
TAFOTH
TAF
KOTH 201740Z 2018/2118 19008KT P6SM -SHRA SCT025 BKN035 OVC060
     FM202000 21012G22KT P6SM -SHRA SCT025 BKN035
     FM210300 17008KT P6SM -SHRA BKN025 BKN035=



000
FTUS46 KMFR 201500 AAC
TAFMFR
TAF AMD
KMFR 201540Z 2016/2112 VRB03KT 2SM RA OVC006
      TEMPO 2017/2018 4SM -RA BR SCT006 BKN015 OVC025
     FM201800 VRB03KT P6SM -SHRA SCT030 BKN050
     FM202000 29007KT P6SM -SHRA SCT035 BKN060
     FM210300 32003KT P6SM -SHRA BKN050 BKN100=



000
FTUS46 KMFR 201400 CCA
TAFOTH
TAF COR
KOTH 201422Z 2014/2112 16005KT P6SM -SHRA BKN020 BKN035 BKN060
     FM201600 18008KT P6SM SCT020 BKN035
     FM202000 21012G22KT P6SM -SHRA SCT025 BKN035
     FM210300 18008KT P6SM -SHRA SCT020 BKN035
     FM210800 18008KT P6SM -SHRA VCSH BKN025 BKN035=



000
FTUS46 KMFR 201400 AAA
TAFRBG
TAF AMD
KRBG 201420Z 2014/2112 VRB03KT P6SM -SHRA SCT025 BKN035 OVC040
      TEMPO 2014/2016 3SM -SHRA BKN025 OVC035
     FM201700 18004KT P6SM VCSH SCT030 BKN040
     FM202000 20007KT P6SM -SHRA SCT035 BKN050
     FM210300 VRB03KT P6SM BKN040 BKN100=



000
FTUS46 KMFR 201400 AAB
TAFMFR
TAF AMD
KMFR 201419Z 2014/2112 VRB03KT P6SM -RA BKN015 BKN035 OVC060
      TEMPO 2014/2016 3SM -RA BR FEW004 BKN015 BKN035
     FM201700 VRB03KT P6SM -SHRA SCT030 BKN050
     FM202000 29007KT P6SM -SHRA SCT035 BKN060
     FM210300 32003KT P6SM -SHRA BKN050 BKN100=



000
FTUS46 KMFR 201400 AAA
TAFOTH
TAF AMD
KOTH 201417Z 2014/2112 18008KT P6SM -SHRA SCT020 BKN035 BKN060
     FM202000 21012G22KT P6SM -SHRA SCT025 BKN035
     FM210300 18008KT P6SM -SHRA SCT020 BKN035
     FM210800 18008KT P6SM -SHRA VCSH BKN025 BKN035=



000
FTUS46 KMFR 201200 AAA
TAFMFR
TAF AMD
KMFR 201218Z 2012/2112 VRB03KT P6SM -RA BKN020 BKN035 OVC060
      TEMPO 2012/2015 3SM -RA BR BKN015 BKN035 OVC050
     FM201700 VRB03KT P6SM -SHRA SCT030 BKN050
     FM202000 29007KT P6SM -SHRA SCT035 BKN060
     FM210300 32003KT P6SM -SHRA BKN050 BKN100=



000
FTUS46 KMFR 201100 CCA
TAFLMT
TAF COR
KLMT 201156Z 2012/2112 16010KT P6SM FEW050 SCT120 SCT250
     FM201500 16010KT P6SM -SHRA FEW025 BKN050 OVC080
     FM201700 20011G18KT P6SM -RA SCT025 BKN040 OVC080
     FM201800 20012G20KT P6SM -RA SCT025 BKN040 OVC080
     FM202200 24010G16KT P6SM -SHRA SCT035 BKN050 BKN080
     FM210200 26007KT P6SM VCSH SCT035 BKN050=



000
FTUS46 KMFR 201100 RRA
TAFLMT
TAF
KLMT 201143Z 2012/2112 17007KT P6SM FEW050 SCT120 SCT250
     FM201800 20012G20KT P6SM VCSH BKN040 OVC080=



000
FTUS46 KMFR 201100 RRA
TAFOTH
TAF
KOTH 201143Z 2012/2112 18008KT P6SM -SHRA BKN020 OVC035
     FM201600 18008KT P6SM SCT020 BKN035
     FM202000 21012G22KT P6SM -SHRA SCT025 BKN035
     FM210300 18008KT P6SM -SHRA SCT020 BKN035
     FM210800 18008KT P6SM -SHRA VCSH BKN025 BKN035=



000
FTUS46 KMFR 201100 RRA
TAFMFR
TAF
KMFR 201143Z 2012/2112 VRB03KT P6SM -RA SCT015 BKN035 OVC060
      TEMPO 2012/2015 4SM -RA BR BKN015 BKN035 OVC060
     FM202000 29007KT P6SM -SHRA SCT035 BKN060
     FM210300 32003KT P6SM -SHRA BKN050 BKN100=



000
FTUS46 KMFR 201100 RRA
TAFRBG
TAF
KRBG 201143Z 2012/2112 VRB03KT 4SM -RA BR SCT025 BKN035 OVC040
      TEMPO 2012/2016 3SM -RA BKN025 OVC035
     FM201700 18004KT P6SM VCSH SCT030 BKN040
     FM202000 20007KT P6SM -SHRA SCT035 BKN050
     FM210300 VRB03KT P6SM BKN040 BKN100=



000
FTUS46 KMFR 201100 AAB
TAFOTH
TAF AMD
KOTH 201101Z 2011/2106 15007KT P6SM -SHRA SCT025 BKN040 BKN080
     FM201200 18008KT P6SM -SHRA BKN020 OVC035
     FM201600 18008KT P6SM VCSH SCT020 BKN035
     FM202100 21014G22KT P6SM BKN040=



000
FTUS46 KMFR 201100 AAA
TAFMFR
TAF AMD
KMFR 201100Z 2011/2106 VRB04KT 4SM -RA BR FEW040 BKN060
     FM201200 VRB03KT P6SM -RA BKN035 OVC060
     FM202000 28010KT P6SM -SHRA SCT035 BKN060=



000
FTUS46 KMFR 201000 CCA
TAFRBG
TAF COR
KRBG 201038Z 2010/2106 VRB04KT 2SM RA BR BKN030 BKN040 OVC050
     FM201100 18004KT 3SM -RA BR BKN025 OVC035
     FM201300 18004KT P6SM -RA BKN030 OVC040
     FM201800 VRB03KT P6SM -SHRA SCT025 BKN040=



000
FTUS46 KMFR 201000 AAA
TAFRBG
TAF AMD
KRBG 201023Z 2010/2106 VRB04KT 2SM -RA BR BKN030 BKN040 OVC050
     FM201100 18004KT 3SM -RA BR BKN025 OVC035
     FM201300 18004KT P6SM -RA BKN030 OVC040
     FM201800 VRB03KT P6SM -SHRA SCT025 BKN040=



000
FTUS46 KMFR 201000 AAA
TAFOTH
TAF AMD
KOTH 201019Z 2010/2106 15007KT P6SM -RA SCT025 BKN040 BKN080
     FM201100 19010KT P6SM -SHRA BKN020 OVC035
     FM201600 18008KT P6SM VCSH SCT020 BKN035
     FM202100 21014G22KT P6SM BKN040=



000
FTUS46 KMFR 201000 AAA
TAFOTH
TAF AMD
KOTH 201019Z 2010/2106 15007KT P6SM -RA SCT025 BKN040 BKN080
     FM201100 19010KT P6SM -SHRA BKN020 OVC035
     FM201600 18008KT P6SM VCSH SCT020 BKN035
     FM202100 21014G22KT P6SM BKN040=



000
FTUS46 KMFR 200500
TAFRBG
TAF
KRBG 200539Z 2006/2106 18004KT P6SM -RA BKN060 OVC100
     FM201000 18004KT P6SM -RA BKN025 OVC035
     FM201800 VRB03KT P6SM -SHRA SCT025 BKN040=



000
FTUS46 KMFR 200500
TAFMFR
TAF
KMFR 200539Z 2006/2106 VRB04KT P6SM BKN060 BKN150
     FM201200 VRB03KT P6SM -RA BKN035 OVC060
     FM202000 28010KT P6SM -SHRA SCT035 BKN060=



000
FTUS46 KMFR 200500
TAFOTH
TAF
KOTH 200539Z 2006/2106 21010G20KT P6SM -RA SCT025 BKN040 BKN060
     FM200700 18010KT P6SM -RA BKN020 OVC035
     FM200900 19010KT P6SM -RA OVC015
     FM201600 18008KT P6SM VCSH SCT020 BKN035
     FM202100 21014G22KT P6SM SCT040=



000
FTUS46 KMFR 200500
TAFLMT
TAF
KLMT 200539Z 2006/2106 17007KT P6SM FEW050 SCT120 SCT250
     FM201800 20012G20KT P6SM VCSH BKN040 OVC080=



000
FTUS46 KMFR 192300 RRA
TAFOTH
TAF
KOTH 192341Z 2000/2024 21010G20KT P6SM SCT025 BKN040
     FM200400 18010KT P6SM -RA BKN020 OVC035
     FM200600 19010KT P6SM -RA OVC015
     FM201600 18008KT P6SM VCSH SCT020 BKN035
     FM202100 21014G22KT P6SM SCT040=



000
FTUS46 KMFR 192300 RRA
TAFMFR
TAF
KMFR 192341Z 2000/2024 25007KT P6SM SCT150
     FM200400 VRB04KT P6SM BKN060 BKN150
     FM201200 VRB03KT P6SM -RA BKN035 OVC060
     FM202000 28010KT P6SM -SHRA SCT035 BKN060=



000
FTUS46 KMFR 192300 RRA
TAFLMT
TAF
KLMT 192341Z 2000/2024 18014G20KT P6SM SCT150
     FM200300 17007KT P6SM FEW050 SCT120 SCT250
     FM201800 20012G20KT P6SM VCSH BKN040 OVC080=



000
FTUS46 KMFR 192300 RRA
TAFRBG
TAF
KRBG 192341Z 2000/2024 19006KT P6SM SCT060
     FM200400 18004KT P6SM -RA BKN060 OVC100
     FM201000 18004KT P6SM -RA BKN025 OVC035
     FM201800 VRB03KT P6SM -SHRA SCT025 BKN040=



000
FTUS46 KMFR 192300 RRA
TAFMFR
TAF
KMFR 192341Z 2000/2024 25007KT P6SM SCT150
     FM200400 VRB04KT P6SM BKN060 BKN150
     FM201200 VRB03KT P6SM -RA BKN035 OVC060
     FM202000 28010KT P6SM -SHRA SCT035 BKN060=



000
FTUS46 KMFR 192300 RRA
TAFOTH
TAF
KOTH 192341Z 2000/2024 21010G20KT P6SM SCT025 BKN040
     FM200400 18010KT P6SM -RA BKN020 OVC035
     FM200600 19010KT P6SM -RA OVC015
     FM201600 18008KT P6SM VCSH SCT020 BKN035
     FM202100 21014G22KT P6SM SCT040=



000
FTUS46 KMFR 192300 RRA
TAFRBG
TAF
KRBG 192341Z 2000/2024 19006KT P6SM SCT060
     FM200400 18004KT P6SM -RA BKN060 OVC100
     FM201000 18004KT P6SM -RA BKN025 OVC035
     FM201800 VRB03KT P6SM -SHRA SCT025 BKN040=



000
FTUS46 KMFR 192300 RRA
TAFLMT
TAF
KLMT 192341Z 2000/2024 18014G20KT P6SM SCT150
     FM200300 17007KT P6SM FEW050 SCT120 SCT250
     FM201800 20012G20KT P6SM VCSH BKN040 OVC080=



000
FTUS46 KMFR 191700
TAFLMT
TAF
KLMT 191739Z 1918/2018 18006KT P6SM FEW250
     FM191900 18011KT P6SM SCT200
     FM192100 18014G20KT P6SM SCT150
     FM200300 17007KT P6SM FEW050 SCT120 SCT250=



000
FTUS46 KMFR 191700
TAFRBG
TAF
KRBG 191739Z 1918/2018 19006KT P6SM SCT060 BKN100
     FM200300 18004KT P6SM BKN060 BKN100 BKN250
     FM201200 18004KT P6SM -RA BKN025 OVC040=



000
FTUS46 KMFR 191700
TAFMFR
TAF
KMFR 191739Z 1918/2018 VRB04KT P6SM FEW200
     FM192200 25007KT P6SM SCT060 SCT150 SCT250
     FM200400 VRB04KT P6SM BKN060 BKN150
     FM201500 VRB03KT P6SM -RA BKN035 OVC060=



000
FTUS46 KMFR 191700
TAFOTH
TAF
KOTH 191739Z 1918/2018 19010KT P6SM OVC019
     FM191900 19015G25KT P6SM BKN019 OVC030
     FM192100 18017G28KT P6SM SCT030 BKN040
     FM200300 18020G30KT P6SM -RA BKN020 OVC035
     FM200600 19010KT P6SM -RA OVC015=



000
FTUS46 KMFR 191300 AAA
TAFOTH
TAF AMD
KOTH 191302Z 1913/2012 16004KT P6SM SCT006 OVC008
     FM191400 16006KT P6SM SCT010 OVC015
     FM191700 17012G20KT P6SM BKN018 OVC025
     FM191900 18015G25KT P6SM BKN025 BKN035
     FM192100 18017G28KT P6SM SCT030 BKN040
     FM200300 18020G30KT P6SM -RA BKN020 OVC035
     FM200600 19010KT P6SM -RA OVC015=



000
FTUS46 KMFR 191100 CCA
TAFLMT
TAF COR
KLMT 191149Z 1912/2012 16005KT P6SM SCT250
     FM191900 18011KT P6SM SCT200
     FM192100 18014G20KT P6SM SCT150
     FM200300 17007KT P6SM FEW050 SCT120 SCT250=



000
FTUS46 KMFR 191100 RRA
TAFMFR
TAF
KMFR 191144Z 1912/2012 VRB02KT P6SM BKN200
     FM191700 15004KT P6SM SCT150 BKN200
     FM192000 20005KT P6SM SCT060 SCT150 SCT250
     FM192200 25007KT P6SM SCT060 SCT150 SCT250
     FM200400 VRB04KT P6SM BKN060 BKN150=



000
FTUS46 KMFR 191100 RRA
TAFLMT
TAF
KLMT 191144Z 1912/2012 16005KT P6SM SKC
     FM191900 18012KT P6SM SCT200=



000
FTUS46 KMFR 191100 RRA
TAFOTH
TAF
KOTH 191144Z 1912/2012 17004KT P6SM SCT006 OVC010
     FM191400 17008KT P6SM SCT012 OVC018
     FM191600 17012G20KT P6SM BKN018 OVC025
     FM191900 18015G25KT P6SM BKN025 BKN035
     FM192100 18017G28KT P6SM SCT030 BKN040
     FM200300 18020G30KT P6SM -RA BKN020 OVC035
     FM200600 19010KT P6SM -RA OVC015=



000
FTUS46 KMFR 191100 RRA
TAFRBG
TAF
KRBG 191144Z 1912/2012 00000KT P6SM BKN200
      TEMPO 1912/1916 4SM BR SCT005 BKN200
     FM191700 18003KT P6SM FEW010 SCT050 BKN200
     FM192200 18007KT P6SM SCT050 SCT100 BKN250
     FM200300 18004KT P6SM BKN060 BKN100 BKN250=



000
FTUS46 KMFR 191000 AAA
TAFRBG
TAF AMD
KRBG 191030Z 1911/2006 00000KT P6SM BKN200
     FM191200 00000KT 4SM BR SCT005 BKN200
     FM191700 VRB03KT P6SM FEW010 SCT060 BKN200
     FM192200 18007KT P6SM SCT030 BKN050=



000
FTUS46 KMFR 191000 AAA
TAFOTH
TAF AMD
KOTH 191025Z 1910/2006 17004KT P6SM SCT006 OVC010
     FM191600 17008G16KT P6SM BKN008
     FM191900 17015G25KT P6SM SCT020 BKN050
     FM200400 17020G30KT P6SM -SHRA BKN020 OVC035=



    US Dept of Commerce
    National Oceanic and Atmospheric Administration
    National Weather Service
    1325 East West Highway
    Silver Spring, MD 20910
    Page Author: NWS Internet Services Team
Disclaimer
Information Quality
Credits
Glossary
Privacy Policy
Freedom of Information Act (FOIA)
About Us
Career Opportunities